Alderson, OK (74522)

06:32 AM CDT on August 27, 2016 (GMT -0500)
South McAlester | | Change Station

Elev 751 ft 34.92 °N, 95.75 °W | Updated 1 second ago

Mostly Cloudy
Delvis skyet
68.5 ° F
Føles som 68.5 ° F
N
0.0
Vind Skiftende Vind VSV

I dag
Høj -- | Lav -- ° F
--% Risiko for nedbør
I går
Høj -- | Lav -- ° F
Precip. -- tommer
Tryk 30.01 tommer
Sigtbarhed 8.0 mil
Skyer Få 7000 ft
Spredte skyer 9500 ft
Delvis skyet 12000 ft
Dugpunkt 66 ° F
Luftfugtighed 91%
Regnmængde 0.00 tommer
Snedybde Ikke tilgængelig.
6:52 AM 7:55 PM
Aftagende halvmåne, 25% visible
METAR KMLC 271053Z AUTO 00000KT 8SM FEW070 SCT095 BKN120 22/20 A3004 RMK AO2 SLP163 T02170200
Tryk 30.01 tommer
Sigtbarhed 8.0 mil
Skyer Få 7000 ft
Spredte skyer 9500 ft
Delvis skyet 12000 ft
Dugpunkt 66 ° F
Luftfugtighed 91%
Regnmængde 0.00 tommer
Snedybde Ikke tilgængelig.
6:52 AM 7:55 PM
Aftagende halvmåne, 25% visible
METAR KMLC 271053Z AUTO 00000KT 8SM FEW070 SCT095 BKN120 22/20 A3004 RMK AO2 SLP163 T02170200

10-Day Weather Forecast

Almanac

Astronomi

Aug. 27, 2016 Opgang Nedgang
Faktisktidspunkt
Civilttusmørke
Nautisktusmørke
Astronomisktusmørke
Måne
Synligtlys’ længde
Dagens længde
Tomorrow will be .
, % of the Moon is Illuminated

Ekstremer i dag

State Highs State Lows

Community

WunderPhotos

Upload Photos

1,935,322 Billeder uploaded!

WunderBlog® & News

Nearby

Luftkvalitet

  Luftkvalitet AQ-indeks Forureningskilder
Not available.

Snedybde

Station Depth Højde

Jordskælvsaktivitet

By Distance Mag. Time & Date
Minimum magnitude displayed is 2.5.

Kystnære vandtemperaturer

Sted Temperatur

Stations

Vejrstationer i nærheden

Stationenssted Temp. Vindeffekt Dugpunkt Luftfugtighed Vind Precip. Elev Opdateret Type
                   

Watches & Warnings

There are currently no watches in effect.